Adna, Washington
Current Conditions -  °F | °C
As of 12:15 AM on Friday 31 Oct 2014 (Local Time) from KCLS Reporting Station
Light Rain Light Rain  
Wind Chill: 12°   Ceiling: 4400
Heat Index: 12°   Visibility: 6mi
Dew Point: 11°   Wind: 0mph
Humidity: 94%   Direction: NA
Pressure: 29.77"   Gusts: NA
Location:  46.63°N, 123.06°W
Report Text: KCLS 310715Z AUTO 00000KT 6SM -RA SCT010 OVC044 12/11 A2977 RMK AO2
Loading
Personal Weather Stations






























Interactive Weather Map
Tropical Storm Tracking
New forecast layout! Learn more

10-Day Weather Forecast

Advertisements
Track Severe Weather on mobile